Time;durP1;ratioP1;P1;durP2;ratioP2;P2;SDS_P1;SDS_P2;PMS_P1;PMS_P2;Temp;Humidity;BMP_temperature;BMP_pressure;BME280_temperature;BME280_humidity;BME280_pressure;Samples;Min_cycle;Max_cycle;Signal;HPM_P1;HPM_P2
2021/12/28 00:01:24;;;;;;;3.15;2.92;;;22.40;38.30;;;;;;5041843;28;44018;-61
2021/12/28 00:03:53;;;;;;;3.42;3.13;;;22.40;38.40;;;;;;5042952;28;43451;-61
2021/12/28 00:06:21;;;;;;;3.40;3.10;;;22.40;38.40;;;;;;5042603;28;44059;-61
2021/12/28 00:08:49;;;;;;;3.13;2.92;;;22.40;38.40;;;;;;5042850;28;43622;-62
2021/12/28 00:11:17;;;;;;;2.92;2.72;;;22.40;38.50;;;;;;5042776;28;43575;-61
2021/12/28 00:13:45;;;;;;;3.03;2.83;;;22.40;38.40;;;;;;5042657;28;44071;-61
2021/12/28 00:17:58;;;;;;;3.40;2.78;;;22.30;38.40;;;;;;5040832;28;44155;-62
2021/12/28 00:19:02;;;;;;;2.70;2.50;;;22.30;38.50;;;;;;5033483;28;43628;-62
2021/12/28 00:21:30;;;;;;;2.92;2.72;;;22.30;39.10;;;;;;5042380;28;43455;-62
2021/12/28 00:24:00;;;;;;;2.72;2.53;;;22.30;38.50;;;;;;5077415;27;43477;-62
2021/12/28 00:26:27;;;;;;;2.97;2.70;;;22.30;38.50;;;;;;5041786;28;43753;-61
2021/12/28 00:28:55;;;;;;;3.00;2.80;;;22.30;38.50;;;;;;5042668;28;43975;-62
2021/12/28 00:31:24;;;;;;;2.97;2.78;;;22.30;38.50;;;;;;5074820;28;43476;-61
2021/12/28 00:33:53;;;;;;;3.10;2.90;;;22.20;38.50;;;;;;5042645;28;43427;-61
2021/12/28 00:36:21;;;;;;;2.88;2.65;;;22.20;38.50;;;;;;5042763;28;44058;-61
2021/12/28 00:38:49;;;;;;;2.70;2.50;;;22.20;38.50;;;;;;5046330;28;43467;-61
2021/12/28 00:41:16;;;;;;;3.05;2.85;;;22.20;38.50;;;;;;5045726;28;43478;-61
2021/12/28 00:43:44;;;;;;;2.95;2.67;;;22.20;38.50;;;;;;5045774;28;43527;-61
2021/12/28 00:46:11;;;;;;;2.80;2.60;;;22.20;38.50;;;;;;5077770;27;44969;-61
2021/12/28 00:48:39;;;;;;;2.78;2.58;;;22.20;38.50;;;;;;5046484;28;43922;-61
2021/12/28 00:51:07;;;;;;;2.90;2.70;;;22.20;38.60;;;;;;5045685;28;43525;-61
2021/12/28 00:53:35;;;;;;;2.75;2.55;;;22.20;38.60;;;;;;5045626;28;43592;-61
2021/12/28 00:56:03;;;;;;;2.63;2.42;;;22.10;38.60;;;;;;5045469;28;43980;-61
2021/12/28 00:58:32;;;;;;;2.72;2.53;;;22.20;38.70;;;;;;5078347;28;44596;-61
2021/12/28 01:01:00;;;;;;;2.50;2.30;;;22.10;38.60;;;;;;5045630;28;43450;-61
2021/12/28 01:03:27;;;;;;;2.75;2.55;;;22.10;38.60;;;;;;5044127;28;43563;-61
2021/12/28 01:05:55;;;;;;;2.72;2.53;;;22.10;38.70;;;;;;5045328;28;45051;-61
2021/12/28 01:08:25;;;;;;;2.60;2.40;;;22.10;38.70;;;;;;5027567;28;43527;-62
2021/12/28 01:10:57;;;;;;;2.80;2.60;;;22.10;38.70;;;;;;5046517;28;44747;-61
2021/12/28 01:13:26;;;;;;;2.40;2.20;;;22.10;38.70;;;;;;5045930;28;43533;-61
2021/12/28 01:15:54;;;;;;;2.70;2.50;;;22.10;38.80;;;;;;5045314;28;43756;-61
2021/12/28 01:18:22;;;;;;;2.40;2.20;;;22.00;38.70;;;;;;5045238;28;43446;-62
2021/12/28 01:20:51;;;;;;;2.45;2.25;;;22.10;38.80;;;;;;5045517;28;43489;-61
2021/12/28 01:23:19;;;;;;;2.40;2.30;;;22.00;38.70;;;;;;5044952;28;43454;-61
2021/12/28 01:25:46;;;;;;;2.60;2.40;;;22.00;38.70;;;;;;5045210;28;43839;-62
2021/12/28 01:28:14;;;;;;;2.53;2.33;;;22.00;38.80;;;;;;5045539;28;43734;-61
2021/12/28 01:30:42;;;;;;;2.65;2.40;;;22.00;38.70;;;;;;5045484;28;43450;-61
2021/12/28 01:33:09;;;;;;;2.70;2.50;;;22.00;38.80;;;;;;5044669;28;43503;-61
2021/12/28 01:35:38;;;;;;;2.47;2.28;;;21.90;38.90;;;;;;5044990;28;44813;-61
2021/12/28 01:38:06;;;;;;;2.63;2.42;;;21.90;38.80;;;;;;5045305;28;43514;-62
2021/12/28 01:40:39;;;;;;;2.50;2.40;;;21.90;38.80;;;;;;5047220;28;44032;-61
2021/12/28 01:43:12;;;;;;;2.35;2.15;;;21.90;38.90;;;;;;5043699;28;43494;-62
2021/12/28 01:45:49;;;;;;;2.40;2.20;;;21.90;39.00;;;;;;5044464;28;45009;-62
2021/12/28 01:48:32;;;;;;;2.25;2.15;;;21.90;39.00;;;;;;5044072;28;43446;-62
2021/12/28 01:51:06;;;;;;;2.20;2.10;;;21.90;39.00;;;;;;5043168;28;43447;-62
2021/12/28 01:53:35;;;;;;;2.20;2.05;;;21.80;39.00;;;;;;5044847;28;43542;-62
2021/12/28 01:56:10;;;;;;;2.13;2.03;;;21.80;39.00;;;;;;5044335;28;43861;-62
2021/12/28 01:58:38;;;;;;;2.33;2.20;;;21.80;39.00;;;;;;5043930;28;43735;-61
2021/12/28 02:01:06;;;;;;;2.72;2.20;;;21.80;39.00;;;;;;5044921;28;43483;-61
2021/12/28 02:03:37;;;;;;;2.30;2.20;;;21.80;39.00;;;;;;5044297;28;43573;-61
2021/12/28 02:06:05;;;;;;;2.10;2.00;;;21.80;39.10;;;;;;5044168;28;44055;-61
2021/12/28 02:08:34;;;;;;;2.15;2.05;;;21.70;39.00;;;;;;5044508;28;43996;-61
2021/12/28 02:11:01;;;;;;;2.10;2.00;;;21.80;39.10;;;;;;5044292;28;43409;-61
2021/12/28 02:13:29;;;;;;;2.33;2.15;;;21.70;39.10;;;;;;5046139;28;43626;-61
2021/12/28 02:15:58;;;;;;;2.05;1.95;;;21.70;39.80;;;;;;5041293;28;44038;-62
2021/12/28 02:18:29;;;;;;;2.08;1.98;;;21.70;39.20;;;;;;5044260;28;43402;-61
2021/12/28 02:20:57;;;;;;;2.10;2.00;;;21.70;39.10;;;;;;5044549;28;43497;-61
2021/12/28 02:23:25;;;;;;;2.40;2.25;;;21.70;39.20;;;;;;5076641;27;43498;-62
2021/12/28 02:25:53;;;;;;;2.50;2.30;;;21.70;39.20;;;;;;5035166;28;43929;-62
2021/12/28 02:28:21;;;;;;;2.22;2.13;;;21.70;39.30;;;;;;5042714;28;44165;-61
2021/12/28 02:30:54;;;;;;;2.20;2.10;;;21.70;39.30;;;;;;5043373;28;43480;-61
2021/12/28 02:33:25;;;;;;;2.28;2.17;;;21.60;39.30;;;;;;5044157;28;43529;-62
2021/12/28 02:36:01;;;;;;;2.30;2.20;;;21.70;39.30;;;;;;5042420;28;43953;-61
2021/12/28 02:38:31;;;;;;;2.28;2.17;;;21.70;39.30;;;;;;5044923;28;43507;-61
2021/12/28 02:40:59;;;;;;;2.28;2.05;;;21.60;39.30;;;;;;5076896;28;43446;-61
2021/12/28 02:43:27;;;;;;;2.10;2.00;;;21.60;39.30;;;;;;5044003;28;43660;-61
2021/12/28 02:46:02;;;;;;;2.40;2.20;;;21.60;39.30;;;;;;5043745;28;43825;-62
2021/12/28 02:48:30;;;;;;;1.88;1.77;;;21.60;39.30;;;;;;5042624;28;43446;-61
2021/12/28 02:51:01;;;;;;;2.28;2.08;;;21.60;39.30;;;;;;5044145;28;43537;-61
2021/12/28 02:53:28;;;;;;;2.05;1.95;;;21.60;39.30;;;;;;5043700;28;43577;-61
2021/12/28 02:55:56;;;;;;;2.10;2.00;;;21.60;39.40;;;;;;5042374;28;44062;-61
2021/12/28 02:58:38;;;;;;;2.30;2.20;;;21.60;39.40;;;;;;5043919;28;43716;-61
2021/12/28 03:01:14;;;;;;;2.10;2.00;;;21.60;39.40;;;;;;5040842;28;43395;-62
2021/12/28 03:03:47;;;;;;;2.30;2.20;;;21.60;39.40;;;;;;5075290;27;43558;-62
2021/12/28 03:06:17;;;;;;;2.17;2.00;;;21.50;39.40;;;;;;5042096;28;43811;-62
2021/12/28 03:08:48;;;;;;;2.15;2.05;;;21.50;39.40;;;;;;5043689;28;43557;-62
2021/12/28 03:11:16;;;;;;;2.33;2.22;;;21.50;39.40;;;;;;5040939;28;43439;-62
2021/12/28 03:13:50;;;;;;;1.90;1.80;;;21.50;39.50;;;;;;5042752;28;43571;-62
2021/12/28 03:16:19;;;;;;;2.15;2.03;;;21.50;39.50;;;;;;5043457;28;43797;-61
2021/12/28 03:18:47;;;;;;;1.95;1.85;;;21.50;39.50;;;;;;5043745;28;43442;-61
2021/12/28 03:21:18;;;;;;;2.25;1.80;;;21.50;39.50;;;;;;5043290;28;43504;-61
2021/12/28 03:23:46;;;;;;;2.30;2.20;;;21.50;39.50;;;;;;5043730;28;43478;-61
2021/12/28 03:26:14;;;;;;;2.33;2.03;;;21.50;39.60;;;;;;5042950;28;44982;-61
2021/12/28 03:28:43;;;;;;;2.20;2.10;;;21.40;39.50;;;;;;5043406;28;44337;-61
2021/12/28 03:31:17;;;;;;;2.00;1.90;;;21.40;39.60;;;;;;5042729;28;43478;-62
2021/12/28 03:33:47;;;;;;;2.08;1.98;;;21.40;40.20;;;;;;5043499;28;43530;-62
2021/12/28 03:36:17;;;;;;;2.08;1.98;;;21.40;39.60;;;;;;5042837;28;44068;-62
2021/12/28 03:38:46;;;;;;;2.10;2.00;;;21.40;39.60;;;;;;5043347;28;43682;-62
2021/12/28 03:41:16;;;;;;;2.10;2.00;;;21.40;39.70;;;;;;5039034;28;43484;-61
2021/12/28 03:43:47;;;;;;;2.20;2.05;;;21.40;39.70;;;;;;5043334;28;43529;-62
2021/12/28 03:46:15;;;;;;;2.10;2.00;;;21.40;39.70;;;;;;5075599;28;44036;-61
2021/12/28 03:48:42;;;;;;;2.30;2.15;;;21.30;39.70;;;;;;5043902;28;43502;-61
2021/12/28 03:51:10;;;;;;;1.88;1.77;;;21.40;39.70;;;;;;5043379;28;43446;-61
2021/12/28 03:53:38;;;;;;;2.10;2.00;;;21.30;39.70;;;;;;5043202;28;43443;-62
2021/12/28 03:56:07;;;;;;;2.00;1.90;;;21.30;39.70;;;;;;5043017;28;45064;-61
2021/12/28 03:58:37;;;;;;;2.35;2.20;;;21.30;39.80;;;;;;5043234;28;43423;-61
2021/12/28 04:01:06;;;;;;;1.80;1.70;;;21.30;39.90;;;;;;5043194;28;43367;-61
2021/12/28 04:03:34;;;;;;;2.03;1.90;;;21.20;39.80;;;;;;5042634;28;43531;-62
2021/12/28 04:06:07;;;;;;;2.20;2.10;;;21.20;39.90;;;;;;5042571;28;44665;-61
2021/12/28 04:08:37;;;;;;;1.92;1.83;;;21.30;39.90;;;;;;5041789;28;43965;-61
2021/12/28 04:11:25;;;;;;;2.13;2.03;;;21.20;40.50;;;;;;5043217;28;43987;-61
2021/12/28 04:14:00;;;;;;;1.90;1.80;;;21.30;39.90;;;;;;5047801;28;43606;-61
2021/12/28 04:16:29;;;;;;;1.88;1.77;;;21.20;39.90;;;;;;5046144;28;45015;-61
2021/12/28 04:18:57;;;;;;;1.80;1.70;;;21.20;39.90;;;;;;5046811;28;43418;-61
2021/12/28 04:21:25;;;;;;;1.90;1.80;;;21.20;39.90;;;;;;5045937;28;43446;-62
2021/12/28 04:23:53;;;;;;;2.03;1.92;;;21.20;39.90;;;;;;5046085;28;43469;-61
2021/12/28 04:26:24;;;;;;;2.20;2.10;;;21.20;39.90;;;;;;5044794;28;44336;-61
2021/12/28 04:28:52;;;;;;;2.00;1.90;;;21.20;39.90;;;;;;5046473;28;43540;-62
2021/12/28 04:31:19;;;;;;;2.10;2.00;;;21.20;39.90;;;;;;5045542;28;43503;-61
2021/12/28 04:33:47;;;;;;;1.67;1.67;;;21.10;39.80;;;;;;5046123;28;43452;-61
2021/12/28 04:36:16;;;;;;;1.88;1.77;;;21.10;39.80;;;;;;5078301;28;43786;-62
2021/12/28 04:38:44;;;;;;;2.13;2.03;;;21.10;39.80;;;;;;5046465;28;43495;-62
2021/12/28 04:41:12;;;;;;;2.15;2.05;;;21.10;39.80;;;;;;5048190;28;44099;-62
2021/12/28 04:43:39;;;;;;;1.90;1.80;;;21.10;39.80;;;;;;5046027;28;43573;-62
2021/12/28 04:46:07;;;;;;;1.80;1.70;;;21.10;39.80;;;;;;5045546;28;44092;-62
2021/12/28 04:48:36;;;;;;;1.90;1.80;;;21.10;39.80;;;;;;5078615;27;45374;-62
2021/12/28 04:51:04;;;;;;;2.10;2.00;;;21.10;39.80;;;;;;5045974;28;43442;-62
2021/12/28 04:53:32;;;;;;;1.80;1.70;;;21.10;39.80;;;;;;5045470;28;43574;-62
2021/12/28 04:56:00;;;;;;;2.00;1.90;;;21.10;39.80;;;;;;5042616;28;43543;-62
2021/12/28 04:58:28;;;;;;;2.10;2.00;;;21.10;39.90;;;;;;5045838;28;43404;-62
2021/12/28 05:00:56;;;;;;;1.70;1.60;;;21.10;39.90;;;;;;5045495;28;43546;-61
2021/12/28 05:03:24;;;;;;;2.13;2.03;;;21.00;39.90;;;;;;5043918;28;43554;-62
2021/12/28 05:05:52;;;;;;;2.15;2.05;;;21.00;40.00;;;;;;5044226;28;43982;-62
2021/12/28 05:08:22;;;;;;;1.90;1.80;;;21.00;40.00;;;;;;5047278;28;43395;-62
2021/12/28 05:10:52;;;;;;;2.00;1.90;;;21.00;40.00;;;;;;5045293;28;43430;-61
2021/12/28 05:13:20;;;;;;;2.08;1.98;;;21.00;40.80;;;;;;5045306;28;44196;-62
2021/12/28 05:15:49;;;;;;;1.80;1.70;;;21.00;40.10;;;;;;5040992;28;43625;-62
2021/12/28 05:18:17;;;;;;;1.77;1.67;;;21.00;40.10;;;;;;5077915;28;43972;-62
2021/12/28 05:20:45;;;;;;;1.73;1.63;;;21.00;40.10;;;;;;5045427;28;43428;-62
2021/12/28 05:23:13;;;;;;;2.10;2.00;;;20.90;40.80;;;;;;5043751;28;43608;-62
2021/12/28 05:25:41;;;;;;;2.00;1.90;;;20.90;40.20;;;;;;5045329;28;43808;-62
2021/12/28 05:28:08;;;;;;;2.00;1.90;;;21.00;40.20;;;;;;5045862;28;43407;-63
2021/12/28 05:30:36;;;;;;;1.90;1.80;;;20.90;40.20;;;;;;5045364;28;43424;-62
2021/12/28 05:33:04;;;;;;;2.00;1.90;;;20.90;40.20;;;;;;5044846;28;43458;-62
2021/12/28 05:35:32;;;;;;;1.90;1.80;;;20.90;40.20;;;;;;5044985;28;44978;-65
2021/12/28 05:38:00;;;;;;;1.88;1.77;;;20.90;40.20;;;;;;5078170;28;43428;-65
2021/12/28 05:40:27;;;;;;;1.90;1.80;;;20.90;40.30;;;;;;5045555;28;43419;-64
2021/12/28 05:42:55;;;;;;;1.88;1.77;;;20.90;40.30;;;;;;5044550;28;43466;-62
2021/12/28 05:45:22;;;;;;;1.85;1.75;;;20.90;40.30;;;;;;5042571;28;43659;-62
2021/12/28 05:47:50;;;;;;;1.90;1.80;;;20.90;40.30;;;;;;5043870;28;43463;-62
2021/12/28 05:50:18;;;;;;;2.00;1.90;;;20.90;40.30;;;;;;5045340;28;43513;-62
2021/12/28 05:52:45;;;;;;;1.85;1.75;;;20.90;40.30;;;;;;5044905;28;43509;-62
2021/12/28 05:55:13;;;;;;;2.00;1.90;;;20.90;40.40;;;;;;5044662;28;45016;-62
2021/12/28 05:57:40;;;;;;;2.20;2.10;;;20.90;40.40;;;;;;5044352;28;43430;-61
2021/12/28 06:00:10;;;;;;;1.80;1.70;;;20.90;40.40;;;;;;5045270;28;43422;-62
2021/12/28 06:02:38;;;;;;;1.80;1.70;;;20.90;40.50;;;;;;5044076;28;43500;-62
2021/12/28 06:05:06;;;;;;;1.95;1.85;;;20.90;40.40;;;;;;5044815;28;43993;-62
2021/12/28 06:07:34;;;;;;;1.90;1.80;;;20.80;40.50;;;;;;5044479;28;43527;-60
2021/12/28 06:10:03;;;;;;;1.75;1.65;;;20.90;40.60;;;;;;5044113;28;43533;-61
2021/12/28 06:12:30;;;;;;;2.00;1.90;;;20.90;40.60;;;;;;5044220;28;43986;-61
2021/12/28 06:14:58;;;;;;;2.08;1.98;;;20.90;40.60;;;;;;5050439;28;44952;-61
2021/12/28 06:17:26;;;;;;;2.22;2.13;;;20.90;40.60;;;;;;5044157;28;43531;-60
2021/12/28 06:19:53;;;;;;;2.10;2.00;;;20.90;40.60;;;;;;5041839;28;43386;-62
2021/12/28 06:22:21;;;;;;;2.40;2.20;;;20.90;40.60;;;;;;5043659;28;43560;-62
2021/12/28 06:24:49;;;;;;;2.42;2.22;;;20.80;40.60;;;;;;5076901;28;45721;-62
2021/12/28 06:27:17;;;;;;;2.60;2.40;;;20.80;40.70;;;;;;5042625;28;43558;-61
2021/12/28 06:29:45;;;;;;;2.20;2.10;;;20.80;40.70;;;;;;5044530;28;43429;-61
2021/12/28 06:32:13;;;;;;;2.40;2.20;;;20.90;40.80;;;;;;5040949;28;43503;-61
2021/12/28 06:34:41;;;;;;;2.20;2.10;;;20.90;40.90;;;;;;5043517;28;44281;-61
2021/12/28 06:37:08;;;;;;;2.15;2.05;;;20.90;40.80;;;;;;5043876;28;43465;-62
2021/12/28 06:39:36;;;;;;;2.30;2.20;;;20.90;40.80;;;;;;5044366;28;43427;-61
2021/12/28 06:42:04;;;;;;;2.58;2.42;;;20.90;40.80;;;;;;5044032;28;43469;-60
2021/12/28 06:44:32;;;;;;;2.25;2.10;;;20.90;40.80;;;;;;5059683;28;44938;-61
2021/12/28 06:46:59;;;;;;;2.65;2.45;;;20.90;40.80;;;;;;5043809;28;43716;-61
2021/12/28 06:49:27;;;;;;;2.80;2.60;;;20.90;40.70;;;;;;5044035;28;43416;-61
2021/12/28 06:51:55;;;;;;;2.58;2.47;;;20.90;40.80;;;;;;5075759;28;43566;-60
2021/12/28 06:54:26;;;;;;;2.80;2.60;;;20.90;40.70;;;;;;5043276;28;44050;-60
2021/12/28 06:56:58;;;;;;;2.60;2.40;;;20.90;40.70;;;;;;5041672;28;43510;-61
2021/12/28 06:59:25;;;;;;;2.88;2.67;;;20.90;40.80;;;;;;5043896;28;43417;-61
2021/12/28 07:01:54;;;;;;;2.83;2.63;;;20.90;40.80;;;;;;5043232;28;43608;-60
2021/12/28 07:04:21;;;;;;;2.75;2.55;;;20.90;40.80;;;;;;5041815;28;44938;-61
2021/12/28 07:06:49;;;;;;;3.00;2.67;;;20.90;40.80;;;;;;5045149;28;43964;-61
2021/12/28 07:09:16;;;;;;;2.85;2.65;;;20.90;40.80;;;;;;5043032;28;43501;-61
2021/12/28 07:11:44;;;;;;;2.72;2.53;;;20.90;40.70;;;;;;5043418;28;43623;-61
2021/12/28 07:14:13;;;;;;;3.47;3.17;;;20.90;40.80;;;;;;5075703;27;43879;-60
2021/12/28 07:16:40;;;;;;;3.40;3.10;;;20.90;40.90;;;;;;5043493;28;43477;-61
2021/12/28 07:19:10;;;;;;;3.70;3.30;;;20.90;40.90;;;;;;5044070;28;43476;-61
2021/12/28 07:21:39;;;;;;;3.65;3.35;;;20.90;40.80;;;;;;5043518;28;43573;-61
2021/12/28 07:24:08;;;;;;;3.70;3.40;;;21.00;40.80;;;;;;5043282;28;43788;-60
2021/12/28 07:26:37;;;;;;;3.72;3.42;;;21.00;40.90;;;;;;5042425;28;43473;-61
2021/12/28 07:29:04;;;;;;;3.60;3.33;;;21.00;40.80;;;;;;5043608;28;43428;-60
2021/12/28 07:31:32;;;;;;;3.80;3.50;;;21.00;40.80;;;;;;5043356;28;43469;-61
2021/12/28 07:34:00;;;;;;;4.00;3.55;;;21.00;40.80;;;;;;5042962;28;43804;-61
2021/12/28 07:36:27;;;;;;;4.00;3.70;;;21.00;40.70;;;;;;5043017;28;44180;-61
2021/12/28 07:38:55;;;;;;;3.75;3.45;;;21.00;40.80;;;;;;5043387;28;44015;-60
2021/12/28 07:41:22;;;;;;;4.05;3.70;;;21.00;40.80;;;;;;5043258;28;43528;-61
2021/12/28 07:43:50;;;;;;;4.10;3.80;;;21.00;40.80;;;;;;5071623;28;44192;-61
2021/12/28 07:46:18;;;;;;;3.72;3.42;;;21.00;40.80;;;;;;5074096;27;44823;-61
2021/12/28 07:48:45;;;;;;;3.80;3.50;;;21.00;40.80;;;;;;5040322;28;43390;-61
2021/12/28 07:51:13;;;;;;;4.05;3.75;;;21.00;40.70;;;;;;5043167;28;43626;-61
2021/12/28 07:53:40;;;;;;;4.00;3.70;;;21.10;40.80;;;;;;5042805;28;43796;-61
2021/12/28 07:56:08;;;;;;;3.90;3.60;;;21.00;40.70;;;;;;5042675;28;43464;-60
2021/12/28 07:58:35;;;;;;;4.47;4.07;;;21.00;40.70;;;;;;5042340;28;43435;-60
2021/12/28 08:01:03;;;;;;;3.60;3.30;;;21.10;40.80;;;;;;5032039;28;43604;-60
2021/12/28 08:03:31;;;;;;;4.03;3.72;;;21.10;40.80;;;;;;5042656;28;44203;-60
2021/12/28 08:05:59;;;;;;;3.63;3.33;;;21.10;40.80;;;;;;5043175;28;44303;-61
2021/12/28 08:08:26;;;;;;;3.65;3.35;;;21.10;40.80;;;;;;5042703;28;43393;-61
2021/12/28 08:10:54;;;;;;;4.07;3.78;;;21.10;40.80;;;;;;5058420;28;44088;-61
2021/12/28 08:13:22;;;;;;;4.55;3.58;;;21.10;40.80;;;;;;5043864;28;43828;-61
2021/12/28 08:15:49;;;;;;;3.60;3.30;;;21.10;40.90;;;;;;5042825;28;43475;-61
2021/12/28 08:18:17;;;;;;;3.00;2.80;;;21.10;40.90;;;;;;5041864;28;43511;-61
2021/12/28 08:20:44;;;;;;;5.93;3.58;;;21.10;40.80;;;;;;5042892;28;43619;-61
2021/12/28 08:23:12;;;;;;;4.22;3.58;;;21.10;40.80;;;;;;5042636;28;44969;-60
2021/12/28 08:25:40;;;;;;;3.63;3.30;;;21.10;40.90;;;;;;5042657;28;44036;-60
2021/12/28 08:28:08;;;;;;;4.53;3.35;;;21.10;40.90;;;;;;5077327;27;43542;-61
2021/12/28 08:30:37;;;;;;;3.90;3.50;;;21.10;40.90;;;;;;5042815;28;43609;-61
2021/12/28 08:33:07;;;;;;;3.60;3.30;;;21.10;40.90;;;;;;5042355;28;43785;-61
2021/12/28 08:35:36;;;;;;;3.50;3.13;;;21.10;40.90;;;;;;5034275;28;44088;-61
2021/12/28 08:38:03;;;;;;;3.58;3.10;;;21.10;41.00;;;;;;5041363;28;43538;-61
2021/12/28 08:40:31;;;;;;;3.45;3.15;;;21.10;40.90;;;;;;5041724;28;43660;-61
2021/12/28 08:42:59;;;;;;;3.10;2.80;;;21.10;40.90;;;;;;5041966;28;43782;-60
2021/12/28 08:45:26;;;;;;;3.58;3.08;;;21.20;40.90;;;;;;5041071;28;44787;-60
2021/12/28 08:47:54;;;;;;;3.47;3.17;;;21.20;40.90;;;;;;5042087;28;43465;-61
2021/12/28 08:50:22;;;;;;;3.00;2.70;;;21.20;40.90;;;;;;5035700;28;43518;-61
2021/12/28 08:52:50;;;;;;;3.30;3.00;;;21.20;41.60;;;;;;5041089;28;44129;-61
2021/12/28 08:55:20;;;;;;;3.20;3.00;;;21.20;41.00;;;;;;5041051;28;43558;-61
2021/12/28 08:57:49;;;;;;;2.95;2.65;;;21.20;40.90;;;;;;5043664;28;43398;-61
2021/12/28 09:00:24;;;;;;;3.38;2.67;;;21.20;41.00;;;;;;5045567;28;43553;-61
2021/12/28 09:02:53;;;;;;;2.70;2.50;;;21.20;41.00;;;;;;5044480;28;43650;-61
2021/12/28 09:05:21;;;;;;;3.20;2.88;;;21.20;41.10;;;;;;5042599;28;43511;-61
2021/12/28 09:07:49;;;;;;;3.08;2.50;;;21.20;41.00;;;;;;5044746;28;43571;-61
2021/12/28 09:10:17;;;;;;;2.85;2.55;;;21.20;41.00;;;;;;5045233;28;43558;-61
2021/12/28 09:12:44;;;;;;;3.05;2.72;;;21.20;41.00;;;;;;5045183;28;44237;-61
2021/12/28 09:15:13;;;;;;;3.10;2.80;;;21.20;41.10;;;;;;5045312;28;43470;-61
2021/12/28 09:17:41;;;;;;;2.85;2.50;;;21.20;41.10;;;;;;5068775;27;43503;-61
2021/12/28 09:20:13;;;;;;;2.63;2.42;;;21.20;41.00;;;;;;5045890;28;43577;-61
2021/12/28 09:23:00;;;;;;;3.13;2.70;;;21.20;41.00;;;;;;5044056;28;44012;-61
2021/12/28 09:25:28;;;;;;;2.60;2.35;;;21.20;41.10;;;;;;5044666;28;43524;-61
2021/12/28 09:27:56;;;;;;;3.83;2.40;;;21.30;41.10;;;;;;5043877;28;43475;-61
2021/12/28 09:30:23;;;;;;;3.20;2.17;;;21.30;41.00;;;;;;5044714;28;43534;-61
2021/12/28 09:32:51;;;;;;;2.35;2.15;;;21.30;41.70;;;;;;5076696;28;43949;-61
2021/12/28 09:35:19;;;;;;;2.75;2.30;;;21.30;41.00;;;;;;5046012;28;43504;-61
2021/12/28 09:37:46;;;;;;;2.70;2.50;;;21.30;40.90;;;;;;5076675;28;43442;-63
2021/12/28 09:40:14;;;;;;;3.78;2.42;;;21.30;40.70;;;;;;5045059;28;43613;-63
2021/12/28 09:42:42;;;;;;;2.97;2.22;;;21.40;40.70;;;;;;5045983;28;43884;-64
2021/12/28 09:45:12;;;;;;;3.05;2.10;;;21.40;40.80;;;;;;5045049;28;43436;-64
2021/12/28 09:47:41;;;;;;;2.75;2.30;;;21.40;40.80;;;;;;5077584;27;43455;-64
2021/12/28 09:50:12;;;;;;;3.00;2.50;;;21.40;40.80;;;;;;5045198;28;43582;-63
2021/12/28 09:52:40;;;;;;;3.10;2.15;;;21.40;40.90;;;;;;5044743;28;44997;-64
2021/12/28 09:55:10;;;;;;;2.10;1.90;;;21.40;40.90;;;;;;5073076;28;43988;-61
2021/12/28 09:57:38;;;;;;;4.60;2.20;;;21.40;41.00;;;;;;5044265;28;43958;-61
2021/12/28 10:00:07;;;;;;;3.20;2.00;;;21.40;41.00;;;;;;5045141;28;43458;-61
2021/12/28 10:02:36;;;;;;;3.47;2.22;;;21.40;41.00;;;;;;5044295;28;44087;-61
2021/12/28 10:05:09;;;;;;;2.45;2.13;;;21.40;41.10;;;;;;5044694;28;43440;-61
2021/12/28 10:07:46;;;;;;;2.42;2.10;;;21.40;41.10;;;;;;5040245;28;43491;-61
2021/12/28 10:10:15;;;;;;;2.63;2.20;;;21.50;41.10;;;;;;5042321;28;43518;-61
2021/12/28 10:12:45;;;;;;;2.75;2.17;;;21.50;41.10;;;;;;5034142;28;44688;-61
2021/12/28 10:15:18;;;;;;;2.72;1.90;;;21.50;41.10;;;;;;5046744;28;43439;-62
2021/12/28 10:17:49;;;;;;;3.50;1.85;;;21.50;41.10;;;;;;5042789;28;43423;-61
2021/12/28 10:20:19;;;;;;;2.67;2.10;;;21.50;41.10;;;;;;5044047;28;43566;-61
2021/12/28 10:22:52;;;;;;;3.20;1.88;;;21.50;41.20;;;;;;5076592;28;45017;-62
2021/12/28 10:25:30;;;;;;;3.63;1.85;;;21.50;41.20;;;;;;5046217;28;43981;-61
2021/12/28 10:28:02;;;;;;;1.77;1.58;;;21.60;41.10;;;;;;5076174;28;43511;-61
2021/12/28 10:30:36;;;;;;;2.05;1.60;;;21.60;41.10;;;;;;5034267;28;43574;-62
2021/12/28 10:33:07;;;;;;;2.05;1.83;;;21.60;41.10;;;;;;5044384;28;43811;-61
2021/12/28 10:35:38;;;;;;;2.53;1.67;;;21.70;41.10;;;;;;5044031;28;43727;-61
2021/12/28 10:38:16;;;;;;;2.83;1.67;;;21.70;41.10;;;;;;5043763;28;43430;-61
2021/12/28 10:40:55;;;;;;;3.22;2.05;;;21.70;41.10;;;;;;5044544;28;43658;-61
2021/12/28 10:43:28;;;;;;;2.08;1.70;;;21.70;41.10;;;;;;5044196;28;44057;-60
2021/12/28 10:46:03;;;;;;;2.17;1.77;;;21.70;41.10;;;;;;5041628;28;43459;-61
2021/12/28 10:48:35;;;;;;;2.97;2.30;;;21.70;41.10;;;;;;5044631;28;43408;-62
2021/12/28 10:51:08;;;;;;;3.88;2.58;;;21.80;41.10;;;;;;5041119;28;43991;-61
2021/12/28 10:54:12;;;;;;;2.83;2.50;;;21.70;41.00;;;;;;5043681;28;44029;-61
2021/12/28 10:56:57;;;;;;;3.60;2.88;;;21.80;41.10;;;;;;5037819;28;43442;-61
2021/12/28 10:59:27;;;;;;;3.28;2.90;;;21.70;41.00;;;;;;5044346;28;43423;-61
2021/12/28 11:01:55;;;;;;;4.47;3.20;;;21.70;41.00;;;;;;5071388;27;43534;-61
2021/12/28 11:04:36;;;;;;;4.03;3.40;;;21.80;41.10;;;;;;5043815;28;44931;-61
2021/12/28 11:07:07;;;;;;;5.43;4.05;;;21.90;41.10;;;;;;5043705;28;43624;-61
2021/12/28 11:09:44;;;;;;;4.63;4.17;;;21.90;41.10;;;;;;5042428;28;43532;-62
2021/12/28 11:12:11;;;;;;;4.82;4.30;;;21.80;41.10;;;;;;5044387;28;43506;-62
2021/12/28 11:14:39;;;;;;;5.40;4.88;;;21.80;41.10;;;;;;5043216;28;43981;-61
2021/12/28 11:17:06;;;;;;;6.75;5.38;;;21.80;41.10;;;;;;5043235;28;43419;-61
2021/12/28 11:19:36;;;;;;;7.13;6.15;;;21.90;41.10;;;;;;5036877;28;43422;-61
2021/12/28 11:22:11;;;;;;;7.95;7.05;;;21.90;41.10;;;;;;5043176;28;43454;-61
2021/12/28 11:24:43;;;;;;;11.20;8.35;;;21.90;41.10;;;;;;5043617;28;43741;-61
2021/12/28 11:27:24;;;;;;;9.77;8.45;;;21.90;41.20;;;;;;5042947;28;43517;-62
2021/12/28 11:29:59;;;;;;;9.52;8.52;;;21.90;41.20;;;;;;5042302;28;43467;-62
2021/12/28 11:32:28;;;;;;;9.88;8.88;;;22.00;41.10;;;;;;5075876;28;44037;-61
2021/12/28 11:34:56;;;;;;;10.30;9.20;;;22.00;41.10;;;;;;5076305;27;43929;-61
2021/12/28 11:37:26;;;;;;;10.18;9.07;;;22.10;41.10;;;;;;5043336;28;43451;-61
2021/12/28 11:40:00;;;;;;;10.68;9.40;;;22.10;41.00;;;;;;5042227;28;43416;-61
2021/12/28 11:42:30;;;;;;;11.05;9.60;;;22.10;40.90;;;;;;5043183;28;43646;-61
2021/12/28 11:44:59;;;;;;;10.40;8.73;;;22.10;40.90;;;;;;5043614;28;44023;-61
2021/12/28 11:47:27;;;;;;;9.73;8.77;;;22.20;41.00;;;;;;5045121;28;43464;-62
2021/12/28 11:49:58;;;;;;;10.43;9.32;;;22.20;41.00;;;;;;5043756;28;43451;-62
2021/12/28 11:52:26;;;;;;;9.23;8.30;;;22.20;40.90;;;;;;5058103;28;43587;-62
2021/12/28 11:54:56;;;;;;;9.63;8.65;;;22.20;41.10;;;;;;5075370;27;44315;-62
2021/12/28 11:57:27;;;;;;;10.30;9.18;;;22.20;41.00;;;;;;5075342;27;44126;-62
2021/12/28 11:59:57;;;;;;;8.55;7.68;;;22.20;41.10;;;;;;5043950;28;43415;-62
2021/12/28 12:02:43;;;;;;;9.38;8.35;;;22.20;41.10;;;;;;5042931;28;43508;-62
2021/12/28 12:05:14;;;;;;;9.07;8.02;;;22.20;41.10;;;;;;5039615;28;44198;-62
2021/12/28 12:07:42;;;;;;;8.13;7.32;;;22.30;41.10;;;;;;5043021;28;43938;-62
2021/12/28 12:10:18;;;;;;;8.30;7.50;;;22.30;41.10;;;;;;5073556;28;43473;-63
2021/12/28 12:12:55;;;;;;;8.38;7.38;;;22.30;41.20;;;;;;5074760;28;43495;-62
2021/12/28 12:15:25;;;;;;;8.30;7.25;;;22.30;41.10;;;;;;5040576;28;43786;-63
2021/12/28 12:17:58;;;;;;;7.63;6.70;;;22.30;41.10;;;;;;5041824;28;43404;-62
2021/12/28 12:20:33;;;;;;;8.30;7.10;;;22.30;41.10;;;;;;5040187;28;43373;-62
2021/12/28 12:23:12;;;;;;;6.90;6.20;;;22.30;41.10;;;;;;5042803;28;43558;-63
2021/12/28 12:25:48;;;;;;;7.65;6.63;;;22.30;41.10;;;;;;5035349;28;44030;-62
2021/12/28 12:28:42;;;;;;;7.32;6.63;;;22.30;41.10;;;;;;5041702;28;43487;-62
2021/12/28 12:31:20;;;;;;;6.88;6.07;;;22.30;41.10;;;;;;5037177;28;43506;-62
2021/12/28 12:33:48;;;;;;;6.70;6.00;;;22.40;41.20;;;;;;5044210;28;44019;-62
2021/12/28 12:36:28;;;;;;;6.80;5.97;;;22.40;41.20;;;;;;5045774;28;43630;-62
2021/12/28 12:38:57;;;;;;;6.38;5.68;;;22.40;41.10;;;;;;5046681;28;43363;-62
2021/12/28 12:41:49;;;;;;;6.15;5.50;;;22.40;41.20;;;;;;5045725;28;43392;-63
2021/12/28 12:44:25;;;;;;;5.50;5.00;;;22.40;41.20;;;;;;5046203;28;43480;-62
2021/12/28 12:46:55;;;;;;;6.00;5.40;;;22.40;41.20;;;;;;5045879;28;44694;-62
2021/12/28 12:49:28;;;;;;;5.75;5.10;;;22.40;41.20;;;;;;5045997;28;43517;-63
2021/12/28 12:52:00;;;;;;;6.60;5.45;;;22.50;41.20;;;;;;5043447;28;43397;-63
2021/12/28 12:54:46;;;;;;;5.93;5.13;;;22.50;41.20;;;;;;5046202;28;43488;-63
2021/12/28 12:57:21;;;;;;;5.28;4.78;;;22.50;41.20;;;;;;5042446;28;43603;-63
2021/12/28 13:00:13;;;;;;;6.20;5.07;;;22.50;41.20;;;;;;5046222;28;43512;-63